createdAt,value
2023-02-22T00:03:26.543Z,5.18
2023-02-22T00:08:31.112Z,5.18
2023-02-22T00:13:32.644Z,5.03
2023-02-22T00:18:34.275Z,4.93
2023-02-22T00:23:36.804Z,4.92
2023-02-22T00:28:38.470Z,4.91
2023-02-22T00:33:40.440Z,4.91
2023-02-22T00:38:43.005Z,4.72
2023-02-22T00:43:44.598Z,4.70
2023-02-22T00:48:46.102Z,4.48
2023-02-22T00:53:47.806Z,4.74
2023-02-22T00:58:49.236Z,4.82
2023-02-22T01:03:51.244Z,4.58
2023-02-22T01:08:53.151Z,4.54
2023-02-22T01:13:56.012Z,4.68
2023-02-22T01:18:57.670Z,4.56
2023-02-22T01:23:59.255Z,4.50
2023-02-22T01:29:01.510Z,4.51
2023-02-22T01:34:02.970Z,4.38
2023-02-22T01:39:04.452Z,4.45
2023-02-22T01:44:21.098Z,4.33
2023-02-22T01:49:26.742Z,3.98
2023-02-22T01:54:34.942Z,4.14
2023-02-22T01:59:40.284Z,3.94
2023-02-22T02:04:42.507Z,4.31
2023-02-22T02:10:00.705Z,4.06
2023-02-22T02:15:20.207Z,4.07
2023-02-22T02:20:38.417Z,4.22
2023-02-22T02:26:01.280Z,4.05
2023-02-22T02:31:31.055Z,4.15
2023-02-22T02:37:02.736Z,4.22
2023-02-22T02:42:08.414Z,3.78
2023-02-22T02:47:32.668Z,4.17
2023-02-22T02:52:35.454Z,4.31
2023-02-22T02:57:37.777Z,4.33
2023-02-22T03:03:24.751Z,4.59
2023-02-22T03:08:43.973Z,4.19
2023-02-22T03:13:45.516Z,4.21
2023-02-22T03:19:27.080Z,3.79
2023-02-22T03:24:35.288Z,3.95
2023-02-22T03:29:41.067Z,3.94
2023-02-22T03:34:45.490Z,4.01
2023-02-22T03:39:49.736Z,3.94
2023-02-22T03:44:53.505Z,4.02
2023-02-22T03:50:00.370Z,3.92
2023-02-22T03:55:03.257Z,3.92
2023-02-22T04:00:08.864Z,4.02
2023-02-22T04:05:10.756Z,3.99
2023-02-22T04:10:16.708Z,3.80
2023-02-22T04:15:20.629Z,3.87
2023-02-22T04:20:22.262Z,3.74
2023-02-22T04:25:24.443Z,3.91
2023-02-22T04:30:26.125Z,3.64
2023-02-22T04:35:28.062Z,3.79
2023-02-22T04:40:30.072Z,3.90
2023-02-22T04:45:31.563Z,3.77
2023-02-22T04:50:33.165Z,3.78
2023-02-22T04:55:34.673Z,3.64
2023-02-22T05:00:36.271Z,3.68
2023-02-22T05:05:37.782Z,3.81
2023-02-22T05:10:39.278Z,3.99
2023-02-22T05:15:40.786Z,3.84
2023-02-22T05:20:42.480Z,3.81
2023-02-22T05:25:43.991Z,3.69
2023-02-22T05:30:46.278Z,3.61
2023-02-22T05:35:47.906Z,3.76
2023-02-22T05:40:49.816Z,3.67
2023-02-22T05:45:51.294Z,3.68
2023-02-22T05:50:52.986Z,3.92
2023-02-22T05:55:54.557Z,3.72
2023-02-22T06:00:57.497Z,3.84
2023-02-22T06:05:58.986Z,3.54
2023-02-22T06:11:00.950Z,3.56
2023-02-22T06:16:03.422Z,3.51
2023-02-22T06:21:08.515Z,3.51
2023-02-22T06:26:10.038Z,3.53
2023-02-22T06:31:11.582Z,3.48
2023-02-22T06:36:13.150Z,3.50
2023-02-22T06:41:14.921Z,3.57
2023-02-22T06:46:16.715Z,3.49
2023-02-22T06:51:18.541Z,3.50
2023-02-22T06:56:20.863Z,3.53
2023-02-22T07:01:22.753Z,3.85
2023-02-22T07:06:24.426Z,3.68
2023-02-22T07:11:26.173Z,3.67
2023-02-22T07:16:27.813Z,3.67
2023-02-22T07:21:30.350Z,3.73
2023-02-22T07:26:39.950Z,3.68
2023-02-22T07:31:41.675Z,3.78
2023-02-22T07:36:43.320Z,3.68
2023-02-22T07:41:44.843Z,3.80
2023-02-22T07:46:49.407Z,3.69
2023-02-22T07:51:51.228Z,3.92
2023-02-22T07:56:52.954Z,3.72
2023-02-22T08:01:54.529Z,4.05
2023-02-22T08:06:56.662Z,4.24
2023-02-22T08:11:58.429Z,4.40
2023-02-22T08:17:00.311Z,4.53
2023-02-22T08:22:01.964Z,4.44
2023-02-22T08:27:03.591Z,4.40
2023-02-22T08:32:05.452Z,4.67
2023-02-22T08:37:07.169Z,4.88
2023-02-22T08:42:08.993Z,4.76
2023-02-22T08:47:11.066Z,4.74
2023-02-22T08:52:12.602Z,4.78
2023-02-22T08:57:14.923Z,4.71
2023-02-22T09:02:19.013Z,4.96
2023-02-22T09:07:20.615Z,5.06
2023-02-22T09:12:22.138Z,5.16
2023-02-22T09:17:23.644Z,5.09
2023-02-22T09:22:25.192Z,5.09
2023-02-22T09:27:27.137Z,5.51
2023-02-22T09:32:28.784Z,5.46
2023-02-22T09:37:30.549Z,5.77
2023-02-22T09:42:38.373Z,5.72
2023-02-22T09:47:45.025Z,5.83
2023-02-22T09:53:15.606Z,5.91
2023-02-22T09:58:50.952Z,6.02
2023-02-22T10:04:13.231Z,6.06
2023-02-22T10:09:14.817Z,6.51
2023-02-22T10:14:30.025Z,6.88
2023-02-22T10:19:54.846Z,7.16
2023-02-22T10:25:11.431Z,7.47
2023-02-22T10:30:25.007Z,7.58
2023-02-22T10:35:29.586Z,7.86
2023-02-22T10:40:31.172Z,8.15
2023-02-22T10:45:34.455Z,8.32
2023-02-22T10:50:39.546Z,8.33
2023-02-22T10:56:22.524Z,8.63
2023-02-22T11:01:33.301Z,8.62
2023-02-22T11:06:35.720Z,8.85
2023-02-22T11:11:41.290Z,9.01
2023-02-22T11:16:52.801Z,9.04
2023-02-22T11:22:28.738Z,9.07
2023-02-22T11:27:40.338Z,9.07
2023-02-22T11:32:47.632Z,9.12
2023-02-22T11:37:49.109Z,9.44
2023-02-22T11:43:07.562Z,9.72
2023-02-22T11:48:22.212Z,9.78
2023-02-22T11:53:42.166Z,9.81
2023-02-22T11:58:49.956Z,9.89
2023-02-22T12:04:13.234Z,9.68
2023-02-22T12:09:35.934Z,9.92
2023-02-22T12:14:57.576Z,9.85
2023-02-22T12:20:18.903Z,9.93
2023-02-22T12:25:26.772Z,9.85
2023-02-22T12:30:33.186Z,9.54
2023-02-22T12:35:39.282Z,9.70
2023-02-22T12:41:03.391Z,9.90
2023-02-22T12:46:20.314Z,10.06
2023-02-22T12:51:38.525Z,10.07
2023-02-22T12:57:15.047Z,10.29
2023-02-22T13:02:28.559Z,10.26
2023-02-22T13:07:42.116Z,10.25
2023-02-22T13:12:52.034Z,10.32
2023-02-22T13:18:15.289Z,10.35
2023-02-22T13:23:39.654Z,10.36
2023-02-22T13:28:50.678Z,10.35
2023-02-22T13:34:16.225Z,10.04
2023-02-22T13:39:49.726Z,10.18
2023-02-22T13:45:22.352Z,10.41
2023-02-22T13:51:01.270Z,10.37
2023-02-22T13:56:03.315Z,10.14
2023-02-22T14:01:05.160Z,10.10
2023-02-22T14:06:09.220Z,10.12
2023-02-22T14:11:13.443Z,10.13
2023-02-22T14:16:21.824Z,10.22
2023-02-22T14:21:23.541Z,10.32
2023-02-22T14:26:29.076Z,10.13
2023-02-22T14:31:36.930Z,10.22
2023-02-22T14:36:42.846Z,9.98
2023-02-22T14:41:57.631Z,9.98
2023-02-22T14:47:04.187Z,10.00
2023-02-22T14:52:20.249Z,10.03
2023-02-22T14:57:44.677Z,10.03
2023-02-22T15:02:51.468Z,9.99
2023-02-22T15:07:59.958Z,10.02
2023-02-22T15:13:04.740Z,10.02
2023-02-22T15:18:17.656Z,10.06
2023-02-22T15:23:19.297Z,10.09
2023-02-22T15:28:23.210Z,10.15
2023-02-22T15:33:29.643Z,10.21
2023-02-22T15:38:31.139Z,10.15
2023-02-22T15:43:34.565Z,10.04
2023-02-22T15:48:36.216Z,10.10
2023-02-22T15:53:44.942Z,10.08
2023-02-22T15:58:47.934Z,10.04
2023-02-22T16:03:53.217Z,10.06
2023-02-22T16:08:56.552Z,10.14
2023-02-22T16:14:29.848Z,10.05
2023-02-22T16:19:42.090Z,10.02
2023-02-22T16:24:44.146Z,10.00
2023-02-22T16:30:15.571Z,10.02
2023-02-22T16:35:28.172Z,10.03
2023-02-22T16:40:56.603Z,10.00
2023-02-22T16:45:58.400Z,9.98
2023-02-22T16:51:08.896Z,9.92
2023-02-22T16:56:14.179Z,9.94
2023-02-22T17:01:17.734Z,9.87
2023-02-22T17:06:20.171Z,9.86
2023-02-22T17:11:21.838Z,9.91
2023-02-22T17:16:23.420Z,10.00
2023-02-22T17:21:25.112Z,9.98
2023-02-22T17:26:26.660Z,9.94
2023-02-22T17:31:29.421Z,9.83
2023-02-22T17:36:32.413Z,9.71
2023-02-22T17:41:34.034Z,9.68
2023-02-22T17:46:36.910Z,9.71
2023-02-22T17:51:39.882Z,9.57
2023-02-22T17:56:41.315Z,9.45
2023-02-22T18:01:42.866Z,9.35
2023-02-22T18:06:44.725Z,9.23
2023-02-22T18:11:46.420Z,9.12
2023-02-22T18:16:48.053Z,9.10
2023-02-22T18:21:49.631Z,9.03
2023-02-22T18:26:51.360Z,8.94
2023-02-22T18:31:53.180Z,8.83
2023-02-22T18:36:55.499Z,8.77
2023-02-22T18:41:57.169Z,8.68
2023-02-22T18:46:58.708Z,8.65
2023-02-22T18:52:00.264Z,8.57
2023-02-22T18:57:01.681Z,8.46
2023-02-22T19:02:03.313Z,8.46
2023-02-22T19:07:05.897Z,8.41
2023-02-22T19:12:07.585Z,8.40
2023-02-22T19:17:09.182Z,8.42
2023-02-22T19:22:11.578Z,8.40
2023-02-22T19:27:13.914Z,8.37
2023-02-22T19:32:15.650Z,8.38
2023-02-22T19:37:17.474Z,8.33
2023-02-22T19:42:18.920Z,8.34
2023-02-22T19:47:20.616Z,8.33
2023-02-22T19:52:22.211Z,8.35
2023-02-22T19:57:23.944Z,8.29
2023-02-22T20:02:25.569Z,8.29
2023-02-22T20:07:27.343Z,8.33
2023-02-22T20:12:29.022Z,8.26
2023-02-22T20:17:30.788Z,8.35
2023-02-22T20:22:32.597Z,8.17
2023-02-22T20:27:34.305Z,8.19
2023-02-22T20:32:37.576Z,8.18
2023-02-22T20:37:39.590Z,8.19
2023-02-22T20:42:41.481Z,8.29
2023-02-22T20:47:43.133Z,8.23
2023-02-22T20:52:45.037Z,8.14
2023-02-22T20:57:46.813Z,8.29
2023-02-22T21:02:53.419Z,8.16
2023-02-22T21:07:57.675Z,8.14
2023-02-22T21:12:59.918Z,8.34
2023-02-22T21:18:04.051Z,8.26
2023-02-22T21:23:05.741Z,8.36
2023-02-22T21:28:07.393Z,8.36
2023-02-22T21:33:08.959Z,8.36
2023-02-22T21:38:10.534Z,8.48
2023-02-22T21:43:17.433Z,8.22
2023-02-22T21:48:43.083Z,8.22
2023-02-22T21:53:47.646Z,8.32
2023-02-22T21:59:15.347Z,8.43
2023-02-22T22:04:22.477Z,8.41
2023-02-22T22:09:24.940Z,8.40
2023-02-22T22:14:27.434Z,8.30
2023-02-22T22:19:30.603Z,8.31
2023-02-22T22:24:32.020Z,8.30
2023-02-22T22:29:33.695Z,8.22
2023-02-22T22:34:35.270Z,8.38
2023-02-22T22:39:36.882Z,8.54
2023-02-22T22:44:38.530Z,8.43
2023-02-22T22:49:40.179Z,8.41
2023-02-22T22:54:42.860Z,8.36
2023-02-22T22:59:44.384Z,8.42
2023-02-22T23:04:52.258Z,8.53
2023-02-22T23:09:53.944Z,8.33
2023-02-22T23:14:55.478Z,8.36
2023-02-22T23:19:57.603Z,8.48
2023-02-22T23:24:59.210Z,8.39
2023-02-22T23:30:00.793Z,8.35
2023-02-22T23:35:02.410Z,8.37
2023-02-22T23:40:04.276Z,8.44
2023-02-22T23:45:08.068Z,8.27
2023-02-22T23:50:10.596Z,8.40
2023-02-22T23:55:12.848Z,8.31
